Disclaimer

Please do not use the information listed here in-flight or in-navigation, as they are not provided to us by the airports but are provided by volunteers, so they might be outdated.

Search


Regions


Airport information page

Radio informations:
INFO - 129.0 MHz

Airport informations:
Latitude: 26° 48' 37.08" N
Longitude: 053° 21' 22.64" E
Elevation: 76 feet - 23 meters
Operating hours: Remarks
Operating agency: Private
Timezone: UTC+3:30
Fuel: Jet A1, without icing nhibitor.

Runway information:
11/29 - 6815 x 148 feet< - >2077 x 45 meters

Recent METARs:
OIBV 171400Z 24014KT 4000 HZ SCT025 FEW030CB BKN090 23/17 Q1012
OIBV 171400Z 24014KT 4000 HZ SCT025 FEW030CB BKN090 23/17 Q1012
OIBV 171500Z 30023KT 3500 SA SCT035 BKN100 21/17 Q1012

Airport on the map: